sensor_id;sensor_type;location;lat;lon;timestamp;temperature;humidity
5802;DHT22;2927;49.366;8.530;2023-04-21T00:00:43;4.40;99.90
5802;DHT22;2927;49.366;8.530;2023-04-21T00:03:09;4.30;99.90
5802;DHT22;2927;49.366;8.530;2023-04-21T00:05:34;4.40;99.90
5802;DHT22;2927;49.366;8.530;2023-04-21T00:08:00;4.40;99.90
5802;DHT22;2927;49.366;8.530;2023-04-21T00:10:25;4.40;99.90
5802;DHT22;2927;49.366;8.530;2023-04-21T00:12:51;4.30;99.90
5802;DHT22;2927;49.366;8.530;2023-04-21T00:15:16;4.30;99.90
5802;DHT22;2927;49.366;8.530;2023-04-21T00:17:42;4.30;99.90
5802;DHT22;2927;49.366;8.530;2023-04-21T00:20:08;4.30;99.90
5802;DHT22;2927;49.366;8.530;2023-04-21T00:22:35;4.20;99.90
5802;DHT22;2927;49.366;8.530;2023-04-21T00:25:01;4.20;99.90
5802;DHT22;2927;49.366;8.530;2023-04-21T00:27:26;4.10;99.90
5802;DHT22;2927;49.366;8.530;2023-04-21T00:29:52;4.10;99.90
5802;DHT22;2927;49.366;8.530;2023-04-21T00:32:17;4.00;99.90
5802;DHT22;2927;49.366;8.530;2023-04-21T00:34:43;4.00;99.90
5802;DHT22;2927;49.366;8.530;2023-04-21T00:37:08;4.00;99.90
5802;DHT22;2927;49.366;8.530;2023-04-21T00:39:34;4.00;99.90
5802;DHT22;2927;49.366;8.530;2023-04-21T00:41:59;3.90;99.90
5802;DHT22;2927;49.366;8.530;2023-04-21T00:44:25;3.90;99.90
5802;DHT22;2927;49.366;8.530;2023-04-21T00:46:51;3.90;99.90
5802;DHT22;2927;49.366;8.530;2023-04-21T00:49:16;3.90;99.90
5802;DHT22;2927;49.366;8.530;2023-04-21T00:51:42;3.90;99.90
5802;DHT22;2927;49.366;8.530;2023-04-21T00:54:08;3.90;99.90
5802;DHT22;2927;49.366;8.530;2023-04-21T00:56:35;3.90;99.90
5802;DHT22;2927;49.366;8.530;2023-04-21T00:59:01;3.90;99.90
5802;DHT22;2927;49.366;8.530;2023-04-21T01:01:31;3.90;99.90
5802;DHT22;2927;49.366;8.530;2023-04-21T01:03:59;3.90;99.90
5802;DHT22;2927;49.366;8.530;2023-04-21T01:06:31;3.90;99.90
5802;DHT22;2927;49.366;8.530;2023-04-21T01:08:58;4.00;99.90
5802;DHT22;2927;49.366;8.530;2023-04-21T01:11:24;3.90;99.90
5802;DHT22;2927;49.366;8.530;2023-04-21T01:13:53;3.90;99.90
5802;DHT22;2927;49.366;8.530;2023-04-21T01:16:19;3.80;99.90
5802;DHT22;2927;49.366;8.530;2023-04-21T01:18:45;3.80;99.90
5802;DHT22;2927;49.366;8.530;2023-04-21T01:21:11;3.80;99.90
5802;DHT22;2927;49.366;8.530;2023-04-21T01:23:40;3.80;99.90
5802;DHT22;2927;49.366;8.530;2023-04-21T01:26:05;3.80;99.90
5802;DHT22;2927;49.366;8.530;2023-04-21T01:28:31;3.80;99.90
5802;DHT22;2927;49.366;8.530;2023-04-21T01:30:57;3.90;99.90
5802;DHT22;2927;49.366;8.530;2023-04-21T01:33:23;3.80;99.90
5802;DHT22;2927;49.366;8.530;2023-04-21T01:35:49;3.70;99.90
5802;DHT22;2927;49.366;8.530;2023-04-21T01:38:15;3.70;99.90
5802;DHT22;2927;49.366;8.530;2023-04-21T01:40:46;3.70;99.90
5802;DHT22;2927;49.366;8.530;2023-04-21T01:43:13;3.80;99.90
5802;DHT22;2927;49.366;8.530;2023-04-21T01:45:38;3.80;99.90
5802;DHT22;2927;49.366;8.530;2023-04-21T01:48:04;3.80;99.90
5802;DHT22;2927;49.366;8.530;2023-04-21T01:50:29;3.80;99.90
5802;DHT22;2927;49.366;8.530;2023-04-21T01:52:55;3.80;99.90
5802;DHT22;2927;49.366;8.530;2023-04-21T01:55:21;3.70;99.90
5802;DHT22;2927;49.366;8.530;2023-04-21T01:57:47;3.80;99.90
5802;DHT22;2927;49.366;8.530;2023-04-21T02:00:13;3.70;99.90
5802;DHT22;2927;49.366;8.530;2023-04-21T02:02:38;3.60;99.90
5802;DHT22;2927;49.366;8.530;2023-04-21T02:05:04;3.50;99.90
5802;DHT22;2927;49.366;8.530;2023-04-21T02:07:30;3.50;99.90
5802;DHT22;2927;49.366;8.530;2023-04-21T02:09:56;3.50;99.90
5802;DHT22;2927;49.366;8.530;2023-04-21T02:12:21;3.50;99.90
5802;DHT22;2927;49.366;8.530;2023-04-21T02:14:46;3.50;99.90
5802;DHT22;2927;49.366;8.530;2023-04-21T02:17:13;3.50;99.90
5802;DHT22;2927;49.366;8.530;2023-04-21T02:19:39;3.40;99.90
5802;DHT22;2927;49.366;8.530;2023-04-21T02:22:05;3.50;99.90
5802;DHT22;2927;49.366;8.530;2023-04-21T02:24:33;3.40;99.90
5802;DHT22;2927;49.366;8.530;2023-04-21T02:26:58;3.40;99.90
5802;DHT22;2927;49.366;8.530;2023-04-21T02:29:24;3.40;99.90
5802;DHT22;2927;49.366;8.530;2023-04-21T02:31:49;3.40;99.90
5802;DHT22;2927;49.366;8.530;2023-04-21T02:34:15;3.30;99.90
5802;DHT22;2927;49.366;8.530;2023-04-21T02:36:40;3.30;99.90
5802;DHT22;2927;49.366;8.530;2023-04-21T02:39:06;3.20;99.90
5802;DHT22;2927;49.366;8.530;2023-04-21T02:41:31;3.20;99.90
5802;DHT22;2927;49.366;8.530;2023-04-21T02:43:57;3.10;99.90
5802;DHT22;2927;49.366;8.530;2023-04-21T02:46:22;3.10;99.90
5802;DHT22;2927;49.366;8.530;2023-04-21T02:48:48;3.10;99.90
5802;DHT22;2927;49.366;8.530;2023-04-21T02:51:14;3.10;99.90
5802;DHT22;2927;49.366;8.530;2023-04-21T02:53:40;3.10;99.90
5802;DHT22;2927;49.366;8.530;2023-04-21T02:56:07;3.10;99.90
5802;DHT22;2927;49.366;8.530;2023-04-21T02:58:33;3.10;99.90
5802;DHT22;2927;49.366;8.530;2023-04-21T03:00:59;3.00;99.90
5802;DHT22;2927;49.366;8.530;2023-04-21T03:03:25;3.00;99.90
5802;DHT22;2927;49.366;8.530;2023-04-21T03:05:58;3.00;99.90
5802;DHT22;2927;49.366;8.530;2023-04-21T03:08:24;2.90;99.90
5802;DHT22;2927;49.366;8.530;2023-04-21T03:10:50;2.80;99.90
5802;DHT22;2927;49.366;8.530;2023-04-21T03:13:16;2.80;99.90
5802;DHT22;2927;49.366;8.530;2023-04-21T03:15:41;2.80;99.90
5802;DHT22;2927;49.366;8.530;2023-04-21T03:18:07;2.70;99.90
5802;DHT22;2927;49.366;8.530;2023-04-21T03:20:33;2.70;99.90
5802;DHT22;2927;49.366;8.530;2023-04-21T03:22:58;2.80;99.90
5802;DHT22;2927;49.366;8.530;2023-04-21T03:25:24;2.80;99.90
5802;DHT22;2927;49.366;8.530;2023-04-21T03:27:55;2.80;99.90
5802;DHT22;2927;49.366;8.530;2023-04-21T03:30:22;2.90;99.90
5802;DHT22;2927;49.366;8.530;2023-04-21T03:32:48;3.00;99.90
5802;DHT22;2927;49.366;8.530;2023-04-21T03:35:15;3.00;99.90
5802;DHT22;2927;49.366;8.530;2023-04-21T03:37:40;3.00;99.90
5802;DHT22;2927;49.366;8.530;2023-04-21T03:40:06;3.00;99.90
5802;DHT22;2927;49.366;8.530;2023-04-21T03:42:35;3.00;99.90
5802;DHT22;2927;49.366;8.530;2023-04-21T03:45:02;3.00;99.90
5802;DHT22;2927;49.366;8.530;2023-04-21T03:47:27;3.00;99.90
5802;DHT22;2927;49.366;8.530;2023-04-21T03:49:53;3.00;99.90
5802;DHT22;2927;49.366;8.530;2023-04-21T03:52:18;3.00;99.90
5802;DHT22;2927;49.366;8.530;2023-04-21T03:54:44;2.90;99.90
5802;DHT22;2927;49.366;8.530;2023-04-21T03:57:09;3.00;99.90
5802;DHT22;2927;49.366;8.530;2023-04-21T03:59:35;3.00;99.90
5802;DHT22;2927;49.366;8.530;2023-04-21T04:02:00;2.90;99.90
5802;DHT22;2927;49.366;8.530;2023-04-21T04:04:26;2.90;99.90
5802;DHT22;2927;49.366;8.530;2023-04-21T04:06:51;2.90;99.90
5802;DHT22;2927;49.366;8.530;2023-04-21T04:09:17;2.90;99.90
5802;DHT22;2927;49.366;8.530;2023-04-21T04:11:43;2.90;99.90
5802;DHT22;2927;49.366;8.530;2023-04-21T04:14:08;2.90;99.90
5802;DHT22;2927;49.366;8.530;2023-04-21T04:16:34;2.90;99.90
5802;DHT22;2927;49.366;8.530;2023-04-21T04:19:00;2.90;99.90
5802;DHT22;2927;49.366;8.530;2023-04-21T04:21:26;2.80;99.90
5802;DHT22;2927;49.366;8.530;2023-04-21T04:23:52;2.90;99.90
5802;DHT22;2927;49.366;8.530;2023-04-21T04:26:18;2.90;99.90
5802;DHT22;2927;49.366;8.530;2023-04-21T04:28:44;3.00;99.90
5802;DHT22;2927;49.366;8.530;2023-04-21T04:31:10;3.00;99.90
5802;DHT22;2927;49.366;8.530;2023-04-21T04:33:40;3.00;99.90
5802;DHT22;2927;49.366;8.530;2023-04-21T04:36:07;3.00;99.90
5802;DHT22;2927;49.366;8.530;2023-04-21T04:38:32;3.00;99.90
5802;DHT22;2927;49.366;8.530;2023-04-21T04:41:02;3.10;99.90
5802;DHT22;2927;49.366;8.530;2023-04-21T04:43:27;3.10;99.90
5802;DHT22;2927;49.366;8.530;2023-04-21T04:45:53;3.10;99.90
5802;DHT22;2927;49.366;8.530;2023-04-21T04:48:19;3.10;99.90
5802;DHT22;2927;49.366;8.530;2023-04-21T04:50:45;3.20;99.90
5802;DHT22;2927;49.366;8.530;2023-04-21T04:53:10;3.20;99.90
5802;DHT22;2927;49.366;8.530;2023-04-21T04:55:36;3.20;99.90
5802;DHT22;2927;49.366;8.530;2023-04-21T04:58:02;3.20;99.90
5802;DHT22;2927;49.366;8.530;2023-04-21T05:00:28;3.20;99.90
5802;DHT22;2927;49.366;8.530;2023-04-21T05:02:54;3.30;99.90
5802;DHT22;2927;49.366;8.530;2023-04-21T05:05:20;3.40;99.90
5802;DHT22;2927;49.366;8.530;2023-04-21T05:07:46;3.40;99.90
5802;DHT22;2927;49.366;8.530;2023-04-21T05:10:12;3.50;99.90
5802;DHT22;2927;49.366;8.530;2023-04-21T05:12:37;3.40;99.90
5802;DHT22;2927;49.366;8.530;2023-04-21T05:15:04;3.50;99.90
5802;DHT22;2927;49.366;8.530;2023-04-21T05:17:32;3.50;99.90
5802;DHT22;2927;49.366;8.530;2023-04-21T05:19:57;3.40;99.90
5802;DHT22;2927;49.366;8.530;2023-04-21T05:22:23;3.50;99.90
5802;DHT22;2927;49.366;8.530;2023-04-21T05:24:49;3.60;99.90
5802;DHT22;2927;49.366;8.530;2023-04-21T05:27:14;3.60;99.90
5802;DHT22;2927;49.366;8.530;2023-04-21T05:29:40;3.60;99.90
5802;DHT22;2927;49.366;8.530;2023-04-21T05:32:05;3.60;99.90
5802;DHT22;2927;49.366;8.530;2023-04-21T05:34:31;3.80;99.90
5802;DHT22;2927;49.366;8.530;2023-04-21T05:36:56;3.80;99.90
5802;DHT22;2927;49.366;8.530;2023-04-21T05:39:22;3.80;99.90
5802;DHT22;2927;49.366;8.530;2023-04-21T05:41:47;3.80;99.90
5802;DHT22;2927;49.366;8.530;2023-04-21T05:44:15;3.80;99.90
5802;DHT22;2927;49.366;8.530;2023-04-21T05:46:42;3.80;99.90
5802;DHT22;2927;49.366;8.530;2023-04-21T05:49:07;3.90;99.90
5802;DHT22;2927;49.366;8.530;2023-04-21T05:51:33;4.00;99.90
5802;DHT22;2927;49.366;8.530;2023-04-21T05:53:58;4.10;99.90
5802;DHT22;2927;49.366;8.530;2023-04-21T05:56:24;4.10;99.90
5802;DHT22;2927;49.366;8.530;2023-04-21T05:58:49;4.20;99.90
5802;DHT22;2927;49.366;8.530;2023-04-21T06:01:15;4.20;99.90
5802;DHT22;2927;49.366;8.530;2023-04-21T06:03:40;4.30;99.90
5802;DHT22;2927;49.366;8.530;2023-04-21T06:06:06;4.40;99.90
5802;DHT22;2927;49.366;8.530;2023-04-21T06:08:31;4.40;99.90
5802;DHT22;2927;49.366;8.530;2023-04-21T06:10:57;4.50;99.90
5802;DHT22;2927;49.366;8.530;2023-04-21T06:13:23;4.50;99.90
5802;DHT22;2927;49.366;8.530;2023-04-21T06:15:48;4.60;99.90
5802;DHT22;2927;49.366;8.530;2023-04-21T06:18:14;4.60;99.90
5802;DHT22;2927;49.366;8.530;2023-04-21T06:20:40;4.80;99.90
5802;DHT22;2927;49.366;8.530;2023-04-21T06:23:06;4.90;99.90
5802;DHT22;2927;49.366;8.530;2023-04-21T06:25:31;4.90;99.90
5802;DHT22;2927;49.366;8.530;2023-04-21T06:27:57;5.00;99.90
5802;DHT22;2927;49.366;8.530;2023-04-21T06:30:22;5.10;99.90
5802;DHT22;2927;49.366;8.530;2023-04-21T06:32:48;5.10;99.90
5802;DHT22;2927;49.366;8.530;2023-04-21T06:35:14;5.40;99.90
5802;DHT22;2927;49.366;8.530;2023-04-21T06:37:42;5.80;99.90
5802;DHT22;2927;49.366;8.530;2023-04-21T06:40:08;6.00;99.90
5802;DHT22;2927;49.366;8.530;2023-04-21T06:42:36;6.10;99.90
5802;DHT22;2927;49.366;8.530;2023-04-21T06:45:02;6.50;99.90
5802;DHT22;2927;49.366;8.530;2023-04-21T06:47:27;6.70;99.90
5802;DHT22;2927;49.366;8.530;2023-04-21T06:49:53;6.60;99.90
5802;DHT22;2927;49.366;8.530;2023-04-21T06:52:18;6.50;99.90
5802;DHT22;2927;49.366;8.530;2023-04-21T06:54:44;6.60;99.90
5802;DHT22;2927;49.366;8.530;2023-04-21T06:57:09;6.60;99.90
5802;DHT22;2927;49.366;8.530;2023-04-21T06:59:36;6.60;99.90
5802;DHT22;2927;49.366;8.530;2023-04-21T07:02:02;6.70;99.90
5802;DHT22;2927;49.366;8.530;2023-04-21T07:04:27;6.70;99.90
5802;DHT22;2927;49.366;8.530;2023-04-21T07:06:56;6.50;99.90
5802;DHT22;2927;49.366;8.530;2023-04-21T07:09:21;6.30;99.90
5802;DHT22;2927;49.366;8.530;2023-04-21T07:11:47;6.30;99.90
5802;DHT22;2927;49.366;8.530;2023-04-21T07:14:12;6.20;99.90
5802;DHT22;2927;49.366;8.530;2023-04-21T07:16:38;6.20;99.90
5802;DHT22;2927;49.366;8.530;2023-04-21T07:19:04;6.10;99.90
5802;DHT22;2927;49.366;8.530;2023-04-21T07:21:29;6.00;99.90
5802;DHT22;2927;49.366;8.530;2023-04-21T07:23:56;6.60;99.90
5802;DHT22;2927;49.366;8.530;2023-04-21T07:26:23;6.90;99.90
5802;DHT22;2927;49.366;8.530;2023-04-21T07:28:48;7.10;99.90
5802;DHT22;2927;49.366;8.530;2023-04-21T07:31:15;7.20;99.90
5802;DHT22;2927;49.366;8.530;2023-04-21T07:33:40;7.30;99.90
5802;DHT22;2927;49.366;8.530;2023-04-21T07:36:06;7.40;99.90
5802;DHT22;2927;49.366;8.530;2023-04-21T07:38:31;7.90;99.90
5802;DHT22;2927;49.366;8.530;2023-04-21T07:40:57;8.50;99.90
5802;DHT22;2927;49.366;8.530;2023-04-21T07:43:23;9.40;99.90
5802;DHT22;2927;49.366;8.530;2023-04-21T07:45:49;10.20;99.90
5802;DHT22;2927;49.366;8.530;2023-04-21T07:48:16;11.10;99.90
5802;DHT22;2927;49.366;8.530;2023-04-21T07:50:42;11.60;38.00
5802;DHT22;2927;49.366;8.530;2023-04-21T07:53:07;12.20;34.80
5802;DHT22;2927;49.366;8.530;2023-04-21T07:55:33;13.20;1.00
5802;DHT22;2927;49.366;8.530;2023-04-21T07:58:02;13.40;1.00
5802;DHT22;2927;49.366;8.530;2023-04-21T08:00:28;13.60;1.00
5802;DHT22;2927;49.366;8.530;2023-04-21T08:02:53;14.40;1.00
5802;DHT22;2927;49.366;8.530;2023-04-21T08:05:19;14.90;1.00
5802;DHT22;2927;49.366;8.530;2023-04-21T08:07:44;16.30;1.00
5802;DHT22;2927;49.366;8.530;2023-04-21T08:10:10;18.40;99.90
5802;DHT22;2927;49.366;8.530;2023-04-21T08:12:36;18.60;1.00
5802;DHT22;2927;49.366;8.530;2023-04-21T08:15:02;18.90;1.00
5802;DHT22;2927;49.366;8.530;2023-04-21T08:17:30;18.90;1.00
5802;DHT22;2927;49.366;8.530;2023-04-21T08:19:56;18.90;8.40
5802;DHT22;2927;49.366;8.530;2023-04-21T08:22:21;19.40;1.00
5802;DHT22;2927;49.366;8.530;2023-04-21T08:24:47;18.90;1.00
5802;DHT22;2927;49.366;8.530;2023-04-21T08:27:12;18.60;1.00
5802;DHT22;2927;49.366;8.530;2023-04-21T08:29:38;18.80;1.00
5802;DHT22;2927;49.366;8.530;2023-04-21T08:32:04;19.00;1.00
5802;DHT22;2927;49.366;8.530;2023-04-21T08:34:29;19.80;1.00
5802;DHT22;2927;49.366;8.530;2023-04-21T08:36:55;20.70;99.90
5802;DHT22;2927;49.366;8.530;2023-04-21T08:39:20;20.40;99.90
5802;DHT22;2927;49.366;8.530;2023-04-21T08:41:46;20.30;99.90
5802;DHT22;2927;49.366;8.530;2023-04-21T08:44:12;20.60;99.90
5802;DHT22;2927;49.366;8.530;2023-04-21T08:46:38;19.90;99.90
5802;DHT22;2927;49.366;8.530;2023-04-21T08:49:04;20.60;99.90
5802;DHT22;2927;49.366;8.530;2023-04-21T08:51:30;22.20;99.90
5802;DHT22;2927;49.366;8.530;2023-04-21T08:53:57;22.50;99.90
5802;DHT22;2927;49.366;8.530;2023-04-21T08:56:23;22.70;99.90
5802;DHT22;2927;49.366;8.530;2023-04-21T08:58:50;22.50;99.90
5802;DHT22;2927;49.366;8.530;2023-04-21T09:01:15;22.00;99.90
5802;DHT22;2927;49.366;8.530;2023-04-21T09:03:40;22.20;99.90
5802;DHT22;2927;49.366;8.530;2023-04-21T09:06:07;21.80;99.90
5802;DHT22;2927;49.366;8.530;2023-04-21T09:08:36;22.50;99.90
5802;DHT22;2927;49.366;8.530;2023-04-21T09:11:02;23.00;99.90
5802;DHT22;2927;49.366;8.530;2023-04-21T09:13:29;22.40;95.70
5802;DHT22;2927;49.366;8.530;2023-04-21T09:15:56;21.90;99.90
5802;DHT22;2927;49.366;8.530;2023-04-21T09:18:23;21.60;99.90
5802;DHT22;2927;49.366;8.530;2023-04-21T09:20:51;21.50;99.90
5802;DHT22;2927;49.366;8.530;2023-04-21T09:23:17;21.80;99.90
5802;DHT22;2927;49.366;8.530;2023-04-21T09:25:45;22.90;99.90
5802;DHT22;2927;49.366;8.530;2023-04-21T09:28:12;23.50;99.90
5802;DHT22;2927;49.366;8.530;2023-04-21T09:30:40;23.70;91.90
5802;DHT22;2927;49.366;8.530;2023-04-21T09:33:06;24.30;73.60
5802;DHT22;2927;49.366;8.530;2023-04-21T09:35:33;24.10;49.80
5802;DHT22;2927;49.366;8.530;2023-04-21T09:38:00;24.00;58.50
5802;DHT22;2927;49.366;8.530;2023-04-21T09:40:30;23.60;79.80
5802;DHT22;2927;49.366;8.530;2023-04-21T09:42:55;23.10;94.60
5802;DHT22;2927;49.366;8.530;2023-04-21T09:45:26;23.80;68.90
5802;DHT22;2927;49.366;8.530;2023-04-21T09:47:54;23.40;44.50
5802;DHT22;2927;49.366;8.530;2023-04-21T09:50:22;23.60;41.90
5802;DHT22;2927;49.366;8.530;2023-04-21T09:52:50;23.50;94.30
5802;DHT22;2927;49.366;8.530;2023-04-21T09:55:17;23.30;65.80
5802;DHT22;2927;49.366;8.530;2023-04-21T09:57:46;23.30;55.50
5802;DHT22;2927;49.366;8.530;2023-04-21T10:00:13;23.60;32.60
5802;DHT22;2927;49.366;8.530;2023-04-21T10:02:43;23.20;24.50
5802;DHT22;2927;49.366;8.530;2023-04-21T10:05:09;21.70;62.30
5802;DHT22;2927;49.366;8.530;2023-04-21T10:07:36;21.30;99.90
5802;DHT22;2927;49.366;8.530;2023-04-21T10:10:01;21.00;99.90
5802;DHT22;2927;49.366;8.530;2023-04-21T10:12:27;20.40;99.90
5802;DHT22;2927;49.366;8.530;2023-04-21T10:14:56;19.20;99.90
5802;DHT22;2927;49.366;8.530;2023-04-21T10:17:22;18.10;99.90
5802;DHT22;2927;49.366;8.530;2023-04-21T10:19:51;17.50;1.00
5802;DHT22;2927;49.366;8.530;2023-04-21T10:22:27;17.20;1.00
5802;DHT22;2927;49.366;8.530;2023-04-21T10:24:55;17.00;1.00
5802;DHT22;2927;49.366;8.530;2023-04-21T10:30:00;16.40;1.00
5802;DHT22;2927;49.366;8.530;2023-04-21T10:32:39;16.60;28.90
5802;DHT22;2927;49.366;8.530;2023-04-21T10:35:09;16.60;94.90
5802;DHT22;2927;49.366;8.530;2023-04-21T10:37:35;16.30;99.90
5802;DHT22;2927;49.366;8.530;2023-04-21T10:40:00;16.40;1.00
5802;DHT22;2927;49.366;8.530;2023-04-21T10:42:28;16.70;99.90
5802;DHT22;2927;49.366;8.530;2023-04-21T10:47:41;16.40;99.90
5802;DHT22;2927;49.366;8.530;2023-04-21T10:50:12;16.40;99.90
5802;DHT22;2927;49.366;8.530;2023-04-21T10:52:38;16.40;99.90
5802;DHT22;2927;49.366;8.530;2023-04-21T10:55:06;16.80;99.90
5802;DHT22;2927;49.366;8.530;2023-04-21T10:57:33;16.70;63.30
5802;DHT22;2927;49.366;8.530;2023-04-21T10:59:59;16.60;99.90
5802;DHT22;2927;49.366;8.530;2023-04-21T11:02:25;16.50;99.90
5802;DHT22;2927;49.366;8.530;2023-04-21T11:04:52;16.30;99.90
5802;DHT22;2927;49.366;8.530;2023-04-21T11:07:23;16.30;99.90
5802;DHT22;2927;49.366;8.530;2023-04-21T11:09:57;16.50;99.90
5802;DHT22;2927;49.366;8.530;2023-04-21T11:12:26;16.70;99.90
5802;DHT22;2927;49.366;8.530;2023-04-21T11:14:53;16.40;99.90
5802;DHT22;2927;49.366;8.530;2023-04-21T11:17:19;16.40;99.90
5802;DHT22;2927;49.366;8.530;2023-04-21T11:19:48;16.20;99.90
5802;DHT22;2927;49.366;8.530;2023-04-21T11:22:16;16.10;1.00
5802;DHT22;2927;49.366;8.530;2023-04-21T11:24:46;16.10;1.00
5802;DHT22;2927;49.366;8.530;2023-04-21T11:27:12;16.00;99.90
5802;DHT22;2927;49.366;8.530;2023-04-21T11:29:39;16.20;1.00
5802;DHT22;2927;49.366;8.530;2023-04-21T11:32:08;16.10;1.00
5802;DHT22;2927;49.366;8.530;2023-04-21T11:34:36;16.40;99.90
5802;DHT22;2927;49.366;8.530;2023-04-21T11:37:02;16.60;99.90
5802;DHT22;2927;49.366;8.530;2023-04-21T11:39:28;16.60;99.90
5802;DHT22;2927;49.366;8.530;2023-04-21T11:41:53;16.70;99.90
5802;DHT22;2927;49.366;8.530;2023-04-21T11:44:36;16.60;99.90
5802;DHT22;2927;49.366;8.530;2023-04-21T11:47:19;16.70;99.90
5802;DHT22;2927;49.366;8.530;2023-04-21T11:49:46;17.10;99.90
5802;DHT22;2927;49.366;8.530;2023-04-21T11:52:29;17.00;42.90
5802;DHT22;2927;49.366;8.530;2023-04-21T11:55:04;17.10;40.30
5802;DHT22;2927;49.366;8.530;2023-04-21T11:57:31;17.20;1.00
5802;DHT22;2927;49.366;8.530;2023-04-21T11:59:58;17.10;99.90
5802;DHT22;2927;49.366;8.530;2023-04-21T12:02:27;17.20;46.60
5802;DHT22;2927;49.366;8.530;2023-04-21T12:05:04;17.20;1.00
5802;DHT22;2927;49.366;8.530;2023-04-21T12:07:34;17.30;1.00
5802;DHT22;2927;49.366;8.530;2023-04-21T12:10:01;17.20;1.00
5802;DHT22;2927;49.366;8.530;2023-04-21T12:12:28;17.30;99.70
5802;DHT22;2927;49.366;8.530;2023-04-21T12:14:53;17.40;1.00
5802;DHT22;2927;49.366;8.530;2023-04-21T12:17:19;17.60;1.00
5802;DHT22;2927;49.366;8.530;2023-04-21T12:19:45;17.60;1.00
5802;DHT22;2927;49.366;8.530;2023-04-21T12:22:16;17.50;1.00
5802;DHT22;2927;49.366;8.530;2023-04-21T12:24:43;17.70;1.00
5802;DHT22;2927;49.366;8.530;2023-04-21T12:32:12;17.90;1.00
5802;DHT22;2927;49.366;8.530;2023-04-21T12:34:37;17.90;1.00
5802;DHT22;2927;49.366;8.530;2023-04-21T12:37:03;18.00;1.00
5802;DHT22;2927;49.366;8.530;2023-04-21T12:39:29;17.90;1.00
5802;DHT22;2927;49.366;8.530;2023-04-21T12:41:55;17.90;1.00
5802;DHT22;2927;49.366;8.530;2023-04-21T12:44:21;17.90;1.00
5802;DHT22;2927;49.366;8.530;2023-04-21T12:49:24;17.80;38.60
5802;DHT22;2927;49.366;8.530;2023-04-21T12:51:49;18.00;91.50
5802;DHT22;2927;49.366;8.530;2023-04-21T12:54:15;18.20;1.00
5802;DHT22;2927;49.366;8.530;2023-04-21T12:56:41;18.10;1.00
5802;DHT22;2927;49.366;8.530;2023-04-21T12:59:07;18.10;1.00
5802;DHT22;2927;49.366;8.530;2023-04-21T13:01:35;17.70;1.00
5802;DHT22;2927;49.366;8.530;2023-04-21T13:04:01;17.70;1.00
5802;DHT22;2927;49.366;8.530;2023-04-21T13:06:27;17.60;1.00
5802;DHT22;2927;49.366;8.530;2023-04-21T13:08:53;17.60;1.00
5802;DHT22;2927;49.366;8.530;2023-04-21T13:11:18;17.80;99.90
5802;DHT22;2927;49.366;8.530;2023-04-21T13:13:44;17.80;99.90
5802;DHT22;2927;49.366;8.530;2023-04-21T13:16:10;17.90;99.90
5802;DHT22;2927;49.366;8.530;2023-04-21T13:18:36;17.80;1.00
5802;DHT22;2927;49.366;8.530;2023-04-21T13:21:03;17.80;10.00
5802;DHT22;2927;49.366;8.530;2023-04-21T13:23:29;17.80;19.70
5802;DHT22;2927;49.366;8.530;2023-04-21T13:25:55;17.90;1.00
5802;DHT22;2927;49.366;8.530;2023-04-21T13:28:21;17.90;1.00
5802;DHT22;2927;49.366;8.530;2023-04-21T13:30:47;17.80;1.00
5802;DHT22;2927;49.366;8.530;2023-04-21T13:33:12;17.80;1.00
5802;DHT22;2927;49.366;8.530;2023-04-21T13:35:38;17.90;1.00
5802;DHT22;2927;49.366;8.530;2023-04-21T13:38:04;17.80;1.00
5802;DHT22;2927;49.366;8.530;2023-04-21T13:40:30;17.90;1.00
5802;DHT22;2927;49.366;8.530;2023-04-21T13:42:55;17.80;1.00
5802;DHT22;2927;49.366;8.530;2023-04-21T13:45:23;17.80;1.00
5802;DHT22;2927;49.366;8.530;2023-04-21T13:47:49;17.70;1.00
5802;DHT22;2927;49.366;8.530;2023-04-21T13:50:17;17.70;1.00
5802;DHT22;2927;49.366;8.530;2023-04-21T13:52:43;17.70;1.00
5802;DHT22;2927;49.366;8.530;2023-04-21T13:55:11;17.70;1.00
5802;DHT22;2927;49.366;8.530;2023-04-21T13:57:38;17.80;1.00
5802;DHT22;2927;49.366;8.530;2023-04-21T14:00:04;18.00;1.00
5802;DHT22;2927;49.366;8.530;2023-04-21T14:02:38;18.10;1.00
5802;DHT22;2927;49.366;8.530;2023-04-21T14:05:04;18.10;1.00
5802;DHT22;2927;49.366;8.530;2023-04-21T14:07:30;18.00;1.00
5802;DHT22;2927;49.366;8.530;2023-04-21T14:09:56;17.90;1.00
5802;DHT22;2927;49.366;8.530;2023-04-21T14:12:22;17.80;1.00
5802;DHT22;2927;49.366;8.530;2023-04-21T14:14:51;17.70;1.00
5802;DHT22;2927;49.366;8.530;2023-04-21T14:17:17;17.80;1.00
5802;DHT22;2927;49.366;8.530;2023-04-21T14:19:44;17.90;1.00
5802;DHT22;2927;49.366;8.530;2023-04-21T14:22:09;17.90;1.00
5802;DHT22;2927;49.366;8.530;2023-04-21T14:24:35;18.10;1.00
5802;DHT22;2927;49.366;8.530;2023-04-21T14:27:01;18.10;1.00
5802;DHT22;2927;49.366;8.530;2023-04-21T14:29:26;18.10;1.00
5802;DHT22;2927;49.366;8.530;2023-04-21T14:31:52;18.30;1.00
5802;DHT22;2927;49.366;8.530;2023-04-21T14:34:25;18.40;1.00
5802;DHT22;2927;49.366;8.530;2023-04-21T14:36:51;18.30;1.00
5802;DHT22;2927;49.366;8.530;2023-04-21T14:39:16;18.40;1.00
5802;DHT22;2927;49.366;8.530;2023-04-21T14:41:42;18.30;1.00
5802;DHT22;2927;49.366;8.530;2023-04-21T14:44:09;18.30;1.00
5802;DHT22;2927;49.366;8.530;2023-04-21T14:46:35;18.10;1.00
5802;DHT22;2927;49.366;8.530;2023-04-21T14:49:00;18.30;1.00
5802;DHT22;2927;49.366;8.530;2023-04-21T14:51:26;18.40;1.00
5802;DHT22;2927;49.366;8.530;2023-04-21T14:53:52;18.40;1.00
5802;DHT22;2927;49.366;8.530;2023-04-21T14:56:17;18.40;1.00
5802;DHT22;2927;49.366;8.530;2023-04-21T14:58:43;18.50;1.00
5802;DHT22;2927;49.366;8.530;2023-04-21T15:01:10;18.30;1.00
5802;DHT22;2927;49.366;8.530;2023-04-21T15:03:36;18.20;1.00
5802;DHT22;2927;49.366;8.530;2023-04-21T15:06:03;18.30;1.00
5802;DHT22;2927;49.366;8.530;2023-04-21T15:08:29;18.30;1.00
5802;DHT22;2927;49.366;8.530;2023-04-21T15:10:55;18.40;1.00
5802;DHT22;2927;49.366;8.530;2023-04-21T15:13:23;18.50;1.00
5802;DHT22;2927;49.366;8.530;2023-04-21T15:15:50;18.50;1.00
5802;DHT22;2927;49.366;8.530;2023-04-21T15:18:18;18.50;1.00
5802;DHT22;2927;49.366;8.530;2023-04-21T15:20:45;18.50;1.00
5802;DHT22;2927;49.366;8.530;2023-04-21T15:23:11;18.60;1.00
5802;DHT22;2927;49.366;8.530;2023-04-21T15:25:37;18.50;1.00
5802;DHT22;2927;49.366;8.530;2023-04-21T15:28:02;18.40;1.00
5802;DHT22;2927;49.366;8.530;2023-04-21T15:30:28;18.50;1.00
5802;DHT22;2927;49.366;8.530;2023-04-21T15:32:54;18.50;1.00
5802;DHT22;2927;49.366;8.530;2023-04-21T15:35:19;18.60;1.00
5802;DHT22;2927;49.366;8.530;2023-04-21T15:37:45;18.60;1.00
5802;DHT22;2927;49.366;8.530;2023-04-21T15:40:12;18.70;1.00
5802;DHT22;2927;49.366;8.530;2023-04-21T15:42:37;18.80;1.00
5802;DHT22;2927;49.366;8.530;2023-04-21T15:45:03;18.80;1.00
5802;DHT22;2927;49.366;8.530;2023-04-21T15:47:29;18.70;1.00
5802;DHT22;2927;49.366;8.530;2023-04-21T15:49:54;18.60;1.00
5802;DHT22;2927;49.366;8.530;2023-04-21T15:52:20;18.40;1.00
5802;DHT22;2927;49.366;8.530;2023-04-21T15:54:46;18.40;1.00
5802;DHT22;2927;49.366;8.530;2023-04-21T15:57:11;18.30;1.00
5802;DHT22;2927;49.366;8.530;2023-04-21T15:59:37;18.20;1.00
5802;DHT22;2927;49.366;8.530;2023-04-21T16:02:02;18.10;1.00
5802;DHT22;2927;49.366;8.530;2023-04-21T16:04:28;18.10;1.00
5802;DHT22;2927;49.366;8.530;2023-04-21T16:06:54;18.10;1.00
5802;DHT22;2927;49.366;8.530;2023-04-21T16:09:20;18.20;1.00
5802;DHT22;2927;49.366;8.530;2023-04-21T16:11:46;18.20;1.00
5802;DHT22;2927;49.366;8.530;2023-04-21T16:14:14;18.30;1.00
5802;DHT22;2927;49.366;8.530;2023-04-21T16:16:41;18.20;1.00
5802;DHT22;2927;49.366;8.530;2023-04-21T16:19:07;18.20;1.00
5802;DHT22;2927;49.366;8.530;2023-04-21T16:21:32;18.10;1.00